sensor_id;sensor_type;location;lat;lon;timestamp;pressure;altitude;pressure_sealevel;temperature;humidity
50682;BME280;36779;52.168;20.878;2022-12-11T00:01:44;99606.90;;;-1.52;79.83
50682;BME280;36779;52.168;20.878;2022-12-11T00:04:16;99609.17;;;-1.52;79.97
50682;BME280;36779;52.168;20.878;2022-12-11T00:06:49;99610.04;;;-1.52;80.10
50682;BME280;36779;52.168;20.878;2022-12-11T00:09:21;99610.20;;;-1.52;79.93
50682;BME280;36779;52.168;20.878;2022-12-11T00:11:53;99612.67;;;-1.52;79.94
50682;BME280;36779;52.168;20.878;2022-12-11T00:14:31;99611.51;;;-1.55;79.86
50682;BME280;36779;52.168;20.878;2022-12-11T00:17:03;99612.04;;;-1.58;80.07
50682;BME280;36779;52.168;20.878;2022-12-11T00:19:36;99612.05;;;-1.58;80.00
50682;BME280;36779;52.168;20.878;2022-12-11T00:22:08;99613.70;;;-1.57;79.99
50682;BME280;36779;52.168;20.878;2022-12-11T00:24:40;99615.13;;;-1.55;80.06
50682;BME280;36779;52.168;20.878;2022-12-11T00:27:12;99615.69;;;-1.53;80.13
50682;BME280;36779;52.168;20.878;2022-12-11T00:29:45;99615.09;;;-1.54;79.88
50682;BME280;36779;52.168;20.878;2022-12-11T00:32:17;99612.73;;;-1.58;80.07
50682;BME280;36779;52.168;20.878;2022-12-11T00:34:49;99611.09;;;-1.62;79.92
50682;BME280;36779;52.168;20.878;2022-12-11T00:37:21;99612.66;;;-1.65;79.91
50682;BME280;36779;52.168;20.878;2022-12-11T00:39:53;99605.09;;;-1.66;80.09
50682;BME280;36779;52.168;20.878;2022-12-11T00:42:30;99604.15;;;-1.68;80.02
50682;BME280;36779;52.168;20.878;2022-12-11T00:45:05;99604.66;;;-1.68;79.91
50682;BME280;36779;52.168;20.878;2022-12-11T00:47:39;99601.55;;;-1.71;79.90
50682;BME280;36779;52.168;20.878;2022-12-11T00:50:12;99607.10;;;-1.73;79.88
50682;BME280;36779;52.168;20.878;2022-12-11T00:52:48;99607.70;;;-1.76;79.80
50682;BME280;36779;52.168;20.878;2022-12-11T00:55:20;99609.02;;;-1.81;79.91
50682;BME280;36779;52.168;20.878;2022-12-11T00:57:53;99603.98;;;-1.83;80.07
50682;BME280;36779;52.168;20.878;2022-12-11T01:00:26;99604.14;;;-1.83;80.02
50682;BME280;36779;52.168;20.878;2022-12-11T01:03:05;99609.62;;;-1.84;80.07
50682;BME280;36779;52.168;20.878;2022-12-11T01:05:38;99616.09;;;-1.85;79.93
50682;BME280;36779;52.168;20.878;2022-12-11T01:08:11;99619.24;;;-1.85;79.92
50682;BME280;36779;52.168;20.878;2022-12-11T01:10:43;99620.33;;;-1.88;79.74
50682;BME280;36779;52.168;20.878;2022-12-11T01:13:16;99615.48;;;-1.88;80.08
50682;BME280;36779;52.168;20.878;2022-12-11T01:15:48;99615.33;;;-1.89;80.14
50682;BME280;36779;52.168;20.878;2022-12-11T01:18:20;99609.22;;;-1.92;79.99
50682;BME280;36779;52.168;20.878;2022-12-11T01:20:52;99613.36;;;-1.93;80.13
50682;BME280;36779;52.168;20.878;2022-12-11T01:23:24;99607.30;;;-1.94;80.12
50682;BME280;36779;52.168;20.878;2022-12-11T01:26:02;99602.20;;;-1.93;80.02
50682;BME280;36779;52.168;20.878;2022-12-11T01:28:35;99597.61;;;-1.92;79.96
50682;BME280;36779;52.168;20.878;2022-12-11T01:31:11;99592.90;;;-1.92;79.84
50682;BME280;36779;52.168;20.878;2022-12-11T01:33:44;99580.91;;;-1.95;79.93
50682;BME280;36779;52.168;20.878;2022-12-11T01:36:20;99574.29;;;-1.98;80.16
50682;BME280;36779;52.168;20.878;2022-12-11T01:38:52;99564.97;;;-1.99;80.07
50682;BME280;36779;52.168;20.878;2022-12-11T01:41:33;99561.30;;;-1.99;80.06
50682;BME280;36779;52.168;20.878;2022-12-11T01:44:07;99559.30;;;-1.98;80.10
50682;BME280;36779;52.168;20.878;2022-12-11T01:46:59;99551.27;;;-1.98;80.15
50682;BME280;36779;52.168;20.878;2022-12-11T01:49:31;99551.04;;;-1.99;79.94
50682;BME280;36779;52.168;20.878;2022-12-11T01:52:07;99549.74;;;-2.01;79.93
50682;BME280;36779;52.168;20.878;2022-12-11T01:54:42;99548.27;;;-2.02;80.12
50682;BME280;36779;52.168;20.878;2022-12-11T01:57:16;99548.31;;;-2.02;80.07
50682;BME280;36779;52.168;20.878;2022-12-11T01:59:49;99550.06;;;-2.03;80.04
50682;BME280;36779;52.168;20.878;2022-12-11T02:02:25;99545.48;;;-2.04;80.01
50682;BME280;36779;52.168;20.878;2022-12-11T02:05:02;99544.41;;;-2.04;80.02
50682;BME280;36779;52.168;20.878;2022-12-11T02:07:38;99535.15;;;-2.06;80.07
50682;BME280;36779;52.168;20.878;2022-12-11T02:10:13;99536.33;;;-2.08;80.02
50682;BME280;36779;52.168;20.878;2022-12-11T02:12:53;99535.02;;;-2.09;80.03
50682;BME280;36779;52.168;20.878;2022-12-11T02:15:45;99530.66;;;-2.09;80.17
50682;BME280;36779;52.168;20.878;2022-12-11T02:18:26;99529.47;;;-2.10;80.08
50682;BME280;36779;52.168;20.878;2022-12-11T02:21:05;99524.36;;;-2.11;80.05
50682;BME280;36779;52.168;20.878;2022-12-11T02:24:02;99525.88;;;-2.14;80.07
50682;BME280;36779;52.168;20.878;2022-12-11T02:26:50;99525.79;;;-2.15;80.08
50682;BME280;36779;52.168;20.878;2022-12-11T02:29:24;99524.53;;;-2.17;79.95
50682;BME280;36779;52.168;20.878;2022-12-11T02:32:03;99527.34;;;-2.17;80.07
50682;BME280;36779;52.168;20.878;2022-12-11T02:34:44;99528.79;;;-2.18;80.09
50682;BME280;36779;52.168;20.878;2022-12-11T02:37:20;99529.76;;;-2.17;80.07
50682;BME280;36779;52.168;20.878;2022-12-11T02:39:55;99521.86;;;-2.16;80.01
50682;BME280;36779;52.168;20.878;2022-12-11T02:42:30;99519.05;;;-2.16;80.04
50682;BME280;36779;52.168;20.878;2022-12-11T02:45:06;99512.61;;;-2.16;80.12
50682;BME280;36779;52.168;20.878;2022-12-11T02:47:40;99507.20;;;-2.15;79.99
50682;BME280;36779;52.168;20.878;2022-12-11T02:50:15;99506.08;;;-2.17;80.02
50682;BME280;36779;52.168;20.878;2022-12-11T02:52:50;99510.92;;;-2.19;80.03
50682;BME280;36779;52.168;20.878;2022-12-11T02:55:29;99514.55;;;-2.21;79.92
50682;BME280;36779;52.168;20.878;2022-12-11T02:58:05;99514.23;;;-2.22;80.05
50682;BME280;36779;52.168;20.878;2022-12-11T03:00:39;99512.07;;;-2.20;80.07
50682;BME280;36779;52.168;20.878;2022-12-11T03:03:12;99513.57;;;-2.19;79.97
50682;BME280;36779;52.168;20.878;2022-12-11T03:05:45;99515.26;;;-2.21;79.93
50682;BME280;36779;52.168;20.878;2022-12-11T03:08:19;99510.73;;;-2.24;80.02
50682;BME280;36779;52.168;20.878;2022-12-11T03:10:52;99510.20;;;-2.27;79.90
50682;BME280;36779;52.168;20.878;2022-12-11T03:13:24;99514.94;;;-2.27;80.10
50682;BME280;36779;52.168;20.878;2022-12-11T03:16:09;99514.90;;;-2.26;79.99
50682;BME280;36779;52.168;20.878;2022-12-11T03:18:51;99518.14;;;-2.25;79.97
50682;BME280;36779;52.168;20.878;2022-12-11T03:21:31;99514.27;;;-2.25;79.86
50682;BME280;36779;52.168;20.878;2022-12-11T03:24:08;99513.39;;;-2.25;79.87
50682;BME280;36779;52.168;20.878;2022-12-11T03:26:44;99514.40;;;-2.26;79.99
50682;BME280;36779;52.168;20.878;2022-12-11T03:29:30;99520.96;;;-2.31;79.91
50682;BME280;36779;52.168;20.878;2022-12-11T03:32:06;99523.33;;;-2.32;80.10
50682;BME280;36779;52.168;20.878;2022-12-11T03:34:44;99521.25;;;-2.35;79.80
50682;BME280;36779;52.168;20.878;2022-12-11T03:37:21;99519.95;;;-2.37;80.07
50682;BME280;36779;52.168;20.878;2022-12-11T03:39:59;99519.58;;;-2.36;79.93
50682;BME280;36779;52.168;20.878;2022-12-11T03:42:34;99521.94;;;-2.32;80.01
50682;BME280;36779;52.168;20.878;2022-12-11T03:45:09;99523.55;;;-2.31;80.01
50682;BME280;36779;52.168;20.878;2022-12-11T03:47:46;99526.83;;;-2.30;80.05
50682;BME280;36779;52.168;20.878;2022-12-11T03:50:20;99524.02;;;-2.32;79.91
50682;BME280;36779;52.168;20.878;2022-12-11T03:52:54;99524.55;;;-2.35;80.06
50682;BME280;36779;52.168;20.878;2022-12-11T03:55:28;99526.73;;;-2.37;79.93
50682;BME280;36779;52.168;20.878;2022-12-11T03:58:02;99528.27;;;-2.36;79.99
50682;BME280;36779;52.168;20.878;2022-12-11T04:00:34;99525.46;;;-2.36;79.95
50682;BME280;36779;52.168;20.878;2022-12-11T04:03:08;99520.86;;;-2.40;79.94
50682;BME280;36779;52.168;20.878;2022-12-11T04:05:51;99514.90;;;-2.44;79.91
50682;BME280;36779;52.168;20.878;2022-12-11T04:08:24;99509.44;;;-2.49;79.98
50682;BME280;36779;52.168;20.878;2022-12-11T04:11:01;99500.98;;;-2.50;79.99
50682;BME280;36779;52.168;20.878;2022-12-11T04:13:51;99497.44;;;-2.49;80.04
50682;BME280;36779;52.168;20.878;2022-12-11T04:16:38;99498.69;;;-2.47;79.99
50682;BME280;36779;52.168;20.878;2022-12-11T04:19:10;99498.32;;;-2.46;79.86
50682;BME280;36779;52.168;20.878;2022-12-11T04:22:00;99497.59;;;-2.48;80.07
50682;BME280;36779;52.168;20.878;2022-12-11T04:24:51;99494.48;;;-2.52;79.98
50682;BME280;36779;52.168;20.878;2022-12-11T04:27:25;99492.46;;;-2.52;79.90
50682;BME280;36779;52.168;20.878;2022-12-11T04:30:18;99492.56;;;-2.51;80.05
50682;BME280;36779;52.168;20.878;2022-12-11T04:32:52;99494.23;;;-2.50;80.12
50682;BME280;36779;52.168;20.878;2022-12-11T04:35:29;99496.83;;;-2.50;79.99
50682;BME280;36779;52.168;20.878;2022-12-11T04:38:02;99498.02;;;-2.50;80.06
50682;BME280;36779;52.168;20.878;2022-12-11T04:40:35;99490.32;;;-2.49;79.98
50682;BME280;36779;52.168;20.878;2022-12-11T04:43:07;99491.42;;;-2.50;80.02
50682;BME280;36779;52.168;20.878;2022-12-11T04:45:40;99490.15;;;-2.49;80.05
50682;BME280;36779;52.168;20.878;2022-12-11T04:48:13;99488.95;;;-2.47;80.13
50682;BME280;36779;52.168;20.878;2022-12-11T04:50:46;99492.31;;;-2.48;79.94
50682;BME280;36779;52.168;20.878;2022-12-11T04:53:19;99486.45;;;-2.48;80.09
50682;BME280;36779;52.168;20.878;2022-12-11T04:55:51;99482.48;;;-2.49;79.88
50682;BME280;36779;52.168;20.878;2022-12-11T04:58:24;99478.93;;;-2.51;79.95
50682;BME280;36779;52.168;20.878;2022-12-11T05:01:17;99475.19;;;-2.52;80.09
50682;BME280;36779;52.168;20.878;2022-12-11T05:03:52;99471.23;;;-2.55;80.07
50682;BME280;36779;52.168;20.878;2022-12-11T05:06:28;99462.83;;;-2.57;79.98
50682;BME280;36779;52.168;20.878;2022-12-11T05:09:02;99452.98;;;-2.58;79.95
50682;BME280;36779;52.168;20.878;2022-12-11T05:11:42;99450.40;;;-2.58;80.07
50682;BME280;36779;52.168;20.878;2022-12-11T05:14:14;99448.79;;;-2.58;80.11
50682;BME280;36779;52.168;20.878;2022-12-11T05:16:46;99443.91;;;-2.55;80.15
50682;BME280;36779;52.168;20.878;2022-12-11T05:19:28;99440.83;;;-2.53;80.02
50682;BME280;36779;52.168;20.878;2022-12-11T05:22:00;99436.48;;;-2.56;80.17
50682;BME280;36779;52.168;20.878;2022-12-11T05:24:32;99427.95;;;-2.61;79.92
50682;BME280;36779;52.168;20.878;2022-12-11T05:27:04;99425.67;;;-2.64;80.00
50682;BME280;36779;52.168;20.878;2022-12-11T05:29:37;99420.44;;;-2.63;80.11
50682;BME280;36779;52.168;20.878;2022-12-11T05:32:11;99418.49;;;-2.63;79.87
50682;BME280;36779;52.168;20.878;2022-12-11T05:34:45;99422.40;;;-2.62;80.04
50682;BME280;36779;52.168;20.878;2022-12-11T05:37:18;99422.20;;;-2.58;79.94
50682;BME280;36779;52.168;20.878;2022-12-11T05:39:50;99418.55;;;-2.55;79.91
50682;BME280;36779;52.168;20.878;2022-12-11T05:42:23;99416.18;;;-2.54;80.11
50682;BME280;36779;52.168;20.878;2022-12-11T05:45:00;99410.74;;;-2.53;80.18
50682;BME280;36779;52.168;20.878;2022-12-11T05:47:33;99404.91;;;-2.57;79.83
50682;BME280;36779;52.168;20.878;2022-12-11T05:50:14;99404.77;;;-2.60;80.20
50682;BME280;36779;52.168;20.878;2022-12-11T05:52:49;99395.36;;;-2.63;80.02
50682;BME280;36779;52.168;20.878;2022-12-11T05:55:22;99392.45;;;-2.63;80.04
50682;BME280;36779;52.168;20.878;2022-12-11T05:57:55;99392.84;;;-2.64;80.03
50682;BME280;36779;52.168;20.878;2022-12-11T06:00:27;99393.46;;;-2.66;79.87
50682;BME280;36779;52.168;20.878;2022-12-11T06:03:05;99390.41;;;-2.67;79.91
50682;BME280;36779;52.168;20.878;2022-12-11T06:05:40;99393.96;;;-2.68;79.93
50682;BME280;36779;52.168;20.878;2022-12-11T06:08:13;99392.55;;;-2.70;80.04
50682;BME280;36779;52.168;20.878;2022-12-11T06:10:48;99392.08;;;-2.71;80.01
50682;BME280;36779;52.168;20.878;2022-12-11T06:13:21;99396.02;;;-2.75;79.98
50682;BME280;36779;52.168;20.878;2022-12-11T06:15:53;99395.08;;;-2.79;79.90
50682;BME280;36779;52.168;20.878;2022-12-11T06:18:36;99396.27;;;-2.81;79.85
50682;BME280;36779;52.168;20.878;2022-12-11T06:21:14;99397.27;;;-2.81;79.93
50682;BME280;36779;52.168;20.878;2022-12-11T06:23:48;99397.83;;;-2.81;79.90
50682;BME280;36779;52.168;20.878;2022-12-11T06:26:21;99404.15;;;-2.80;79.95
50682;BME280;36779;52.168;20.878;2022-12-11T06:29:00;99407.17;;;-2.81;80.00
50682;BME280;36779;52.168;20.878;2022-12-11T06:31:47;99409.70;;;-2.82;80.07
50682;BME280;36779;52.168;20.878;2022-12-11T06:34:20;99406.94;;;-2.85;79.99
50682;BME280;36779;52.168;20.878;2022-12-11T06:36:53;99405.02;;;-2.88;80.10
50682;BME280;36779;52.168;20.878;2022-12-11T06:39:25;99403.91;;;-2.89;80.03
50682;BME280;36779;52.168;20.878;2022-12-11T06:41:58;99403.79;;;-2.90;80.02
50682;BME280;36779;52.168;20.878;2022-12-11T06:44:31;99404.65;;;-2.90;80.00
50682;BME280;36779;52.168;20.878;2022-12-11T06:47:03;99405.85;;;-2.90;80.00
50682;BME280;36779;52.168;20.878;2022-12-11T06:49:38;99408.74;;;-2.89;79.91
50682;BME280;36779;52.168;20.878;2022-12-11T06:52:10;99409.96;;;-2.91;79.88
50682;BME280;36779;52.168;20.878;2022-12-11T06:54:48;99411.92;;;-2.95;80.11
50682;BME280;36779;52.168;20.878;2022-12-11T06:57:20;99413.90;;;-2.96;80.02
50682;BME280;36779;52.168;20.878;2022-12-11T06:59:53;99411.40;;;-2.98;80.00
50682;BME280;36779;52.168;20.878;2022-12-11T07:02:25;99407.77;;;-2.97;79.88
50682;BME280;36779;52.168;20.878;2022-12-11T07:04:59;99408.20;;;-2.99;79.84
50682;BME280;36779;52.168;20.878;2022-12-11T07:07:31;99405.55;;;-3.01;79.99
50682;BME280;36779;52.168;20.878;2022-12-11T07:10:05;99400.91;;;-3.04;79.92
50682;BME280;36779;52.168;20.878;2022-12-11T07:12:38;99402.16;;;-3.08;79.84
50682;BME280;36779;52.168;20.878;2022-12-11T07:15:11;99405.70;;;-3.09;79.87
50682;BME280;36779;52.168;20.878;2022-12-11T07:17:44;99407.73;;;-3.11;79.90
50682;BME280;36779;52.168;20.878;2022-12-11T07:20:29;99406.38;;;-3.11;79.76
50682;BME280;36779;52.168;20.878;2022-12-11T07:23:04;99400.31;;;-3.12;79.87
50682;BME280;36779;52.168;20.878;2022-12-11T07:25:39;99399.10;;;-3.12;79.99
50682;BME280;36779;52.168;20.878;2022-12-11T07:28:11;99394.84;;;-3.13;80.05
50682;BME280;36779;52.168;20.878;2022-12-11T07:30:46;99386.73;;;-3.17;79.78
50682;BME280;36779;52.168;20.878;2022-12-11T07:33:18;99384.23;;;-3.21;79.85
50682;BME280;36779;52.168;20.878;2022-12-11T07:35:51;99378.98;;;-3.22;79.93
50682;BME280;36779;52.168;20.878;2022-12-11T07:38:23;99378.48;;;-3.23;79.89
50682;BME280;36779;52.168;20.878;2022-12-11T07:40:56;99378.19;;;-3.21;79.91
50682;BME280;36779;52.168;20.878;2022-12-11T07:43:31;99370.48;;;-3.23;79.80
50682;BME280;36779;52.168;20.878;2022-12-11T07:46:05;99375.07;;;-3.24;80.08
50682;BME280;36779;52.168;20.878;2022-12-11T07:48:42;99370.61;;;-3.25;80.05
50682;BME280;36779;52.168;20.878;2022-12-11T07:51:19;99368.77;;;-3.26;79.89
50682;BME280;36779;52.168;20.878;2022-12-11T07:53:54;99367.58;;;-3.27;79.94
50682;BME280;36779;52.168;20.878;2022-12-11T07:56:32;99366.91;;;-3.27;79.76
50682;BME280;36779;52.168;20.878;2022-12-11T07:59:14;99367.06;;;-3.27;79.90
50682;BME280;36779;52.168;20.878;2022-12-11T08:01:46;99370.39;;;-3.27;79.90
50682;BME280;36779;52.168;20.878;2022-12-11T08:04:19;99368.51;;;-3.30;79.91
50682;BME280;36779;52.168;20.878;2022-12-11T08:06:51;99369.86;;;-3.32;79.80
50682;BME280;36779;52.168;20.878;2022-12-11T08:09:23;99368.75;;;-3.34;79.88
50682;BME280;36779;52.168;20.878;2022-12-11T08:11:57;99367.89;;;-3.37;80.03
50682;BME280;36779;52.168;20.878;2022-12-11T08:14:32;99366.70;;;-3.37;79.96
50682;BME280;36779;52.168;20.878;2022-12-11T08:17:04;99366.16;;;-3.34;79.85
50682;BME280;36779;52.168;20.878;2022-12-11T08:19:49;99363.59;;;-3.32;79.85
50682;BME280;36779;52.168;20.878;2022-12-11T08:22:21;99362.23;;;-3.32;79.97
50682;BME280;36779;52.168;20.878;2022-12-11T08:24:53;99362.13;;;-3.33;79.90
50682;BME280;36779;52.168;20.878;2022-12-11T08:27:25;99360.77;;;-3.35;79.88
50682;BME280;36779;52.168;20.878;2022-12-11T08:30:00;99357.11;;;-3.37;79.78
50682;BME280;36779;52.168;20.878;2022-12-11T08:32:32;99358.37;;;-3.37;79.91
50682;BME280;36779;52.168;20.878;2022-12-11T08:35:10;99351.59;;;-3.40;79.76
50682;BME280;36779;52.168;20.878;2022-12-11T08:37:44;99351.27;;;-3.43;79.66
50682;BME280;36779;52.168;20.878;2022-12-11T08:40:17;99349.16;;;-3.43;79.81
50682;BME280;36779;52.168;20.878;2022-12-11T08:42:50;99348.61;;;-3.42;79.93
50682;BME280;36779;52.168;20.878;2022-12-11T08:45:22;99344.90;;;-3.44;79.70
50682;BME280;36779;52.168;20.878;2022-12-11T08:47:54;99345.19;;;-3.46;79.87
50682;BME280;36779;52.168;20.878;2022-12-11T08:50:27;99339.53;;;-3.50;79.80
50682;BME280;36779;52.168;20.878;2022-12-11T08:53:00;99342.36;;;-3.53;79.77
50682;BME280;36779;52.168;20.878;2022-12-11T08:55:33;99345.81;;;-3.52;79.85
50682;BME280;36779;52.168;20.878;2022-12-11T08:58:06;99342.31;;;-3.52;79.72
50682;BME280;36779;52.168;20.878;2022-12-11T09:00:38;99344.45;;;-3.50;79.78
50682;BME280;36779;52.168;20.878;2022-12-11T09:03:11;99344.75;;;-3.47;79.89
50682;BME280;36779;52.168;20.878;2022-12-11T09:05:45;99338.02;;;-3.47;79.87
50682;BME280;36779;52.168;20.878;2022-12-11T09:08:18;99328.30;;;-3.48;79.87
50682;BME280;36779;52.168;20.878;2022-12-11T09:10:50;99325.80;;;-3.49;79.85
50682;BME280;36779;52.168;20.878;2022-12-11T09:13:22;99319.94;;;-3.50;79.87
50682;BME280;36779;52.168;20.878;2022-12-11T09:15:56;99320.02;;;-3.51;79.83
50682;BME280;36779;52.168;20.878;2022-12-11T09:18:32;99321.78;;;-3.52;79.88
50682;BME280;36779;52.168;20.878;2022-12-11T09:21:09;99318.61;;;-3.51;79.73
50682;BME280;36779;52.168;20.878;2022-12-11T09:23:51;99307.08;;;-3.50;79.92
50682;BME280;36779;52.168;20.878;2022-12-11T09:26:23;99297.52;;;-3.50;79.90
50682;BME280;36779;52.168;20.878;2022-12-11T09:29:03;99295.58;;;-3.52;79.90
50682;BME280;36779;52.168;20.878;2022-12-11T09:31:44;99300.33;;;-3.53;79.87
50682;BME280;36779;52.168;20.878;2022-12-11T09:34:16;99296.05;;;-3.51;79.88
50682;BME280;36779;52.168;20.878;2022-12-11T09:36:58;99288.43;;;-3.49;79.85
50682;BME280;36779;52.168;20.878;2022-12-11T09:39:31;99285.27;;;-3.48;79.77
50682;BME280;36779;52.168;20.878;2022-12-11T09:42:06;99282.59;;;-3.53;79.60
50682;BME280;36779;52.168;20.878;2022-12-11T09:44:46;99273.91;;;-3.58;79.73
50682;BME280;36779;52.168;20.878;2022-12-11T09:47:26;99268.58;;;-3.59;79.82
50682;BME280;36779;52.168;20.878;2022-12-11T09:50:09;99265.70;;;-3.58;79.90
50682;BME280;36779;52.168;20.878;2022-12-11T09:53:01;99268.83;;;-3.55;79.77
50682;BME280;36779;52.168;20.878;2022-12-11T09:55:41;99262.00;;;-3.54;79.92
50682;BME280;36779;52.168;20.878;2022-12-11T09:58:23;99260.02;;;-3.52;79.93
50682;BME280;36779;52.168;20.878;2022-12-11T10:01:12;99258.27;;;-3.52;79.91
50682;BME280;36779;52.168;20.878;2022-12-11T10:04:12;99262.45;;;-3.53;79.79
50682;BME280;36779;52.168;20.878;2022-12-11T10:06:57;99258.06;;;-3.52;79.95
50682;BME280;36779;52.168;20.878;2022-12-11T10:09:38;99245.95;;;-3.50;79.88
50682;BME280;36779;52.168;20.878;2022-12-11T10:12:32;99243.08;;;-3.46;80.09
50682;BME280;36779;52.168;20.878;2022-12-11T10:15:21;99243.36;;;-3.43;79.98
50682;BME280;36779;52.168;20.878;2022-12-11T10:17:59;99239.27;;;-3.41;79.98
50682;BME280;36779;52.168;20.878;2022-12-11T10:20:36;99233.64;;;-3.40;79.96
50682;BME280;36779;52.168;20.878;2022-12-11T10:23:19;99233.02;;;-3.44;79.76
50682;BME280;36779;52.168;20.878;2022-12-11T10:26:22;99226.69;;;-3.45;79.86
50682;BME280;36779;52.168;20.878;2022-12-11T10:28:55;99224.77;;;-3.43;79.85
50682;BME280;36779;52.168;20.878;2022-12-11T10:31:47;99222.73;;;-3.41;79.83
50682;BME280;36779;52.168;20.878;2022-12-11T10:34:29;99218.16;;;-3.40;79.79
50682;BME280;36779;52.168;20.878;2022-12-11T10:37:04;99223.85;;;-3.39;79.81
50682;BME280;36779;52.168;20.878;2022-12-11T10:39:36;99223.21;;;-3.40;79.88
50682;BME280;36779;52.168;20.878;2022-12-11T10:42:18;99214.38;;;-3.41;79.92
50682;BME280;36779;52.168;20.878;2022-12-11T10:45:00;99210.12;;;-3.39;79.95
50682;BME280;36779;52.168;20.878;2022-12-11T10:47:35;99208.55;;;-3.34;80.05
50682;BME280;36779;52.168;20.878;2022-12-11T10:50:21;99202.20;;;-3.30;79.94
50682;BME280;36779;52.168;20.878;2022-12-11T10:52:56;99189.11;;;-3.26;79.91
50682;BME280;36779;52.168;20.878;2022-12-11T10:55:42;99184.94;;;-3.26;79.84
50682;BME280;36779;52.168;20.878;2022-12-11T10:58:18;99181.64;;;-3.26;80.01
50682;BME280;36779;52.168;20.878;2022-12-11T11:01:05;99175.46;;;-3.25;80.13
50682;BME280;36779;52.168;20.878;2022-12-11T11:03:51;99170.55;;;-3.24;79.89
50682;BME280;36779;52.168;20.878;2022-12-11T11:06:27;99165.64;;;-3.24;79.93
50682;BME280;36779;52.168;20.878;2022-12-11T11:09:27;99163.80;;;-3.20;79.90
50682;BME280;36779;52.168;20.878;2022-12-11T11:12:00;99161.73;;;-3.17;79.74
50682;BME280;36779;52.168;20.878;2022-12-11T11:14:38;99154.13;;;-3.15;79.98
50682;BME280;36779;52.168;20.878;2022-12-11T11:17:15;99152.98;;;-3.17;80.00
50682;BME280;36779;52.168;20.878;2022-12-11T11:19:49;99149.48;;;-3.19;79.84
50682;BME280;36779;52.168;20.878;2022-12-11T11:22:25;99148.45;;;-3.21;79.84
50682;BME280;36779;52.168;20.878;2022-12-11T11:24:59;99147.50;;;-3.22;79.94
50682;BME280;36779;52.168;20.878;2022-12-11T11:27:38;99143.35;;;-3.20;79.98
50682;BME280;36779;52.168;20.878;2022-12-11T11:30:20;99146.86;;;-3.19;79.83
50682;BME280;36779;52.168;20.878;2022-12-11T11:32:57;99140.98;;;-3.19;79.80
50682;BME280;36779;52.168;20.878;2022-12-11T11:35:36;99138.38;;;-3.21;79.90
50682;BME280;36779;52.168;20.878;2022-12-11T11:38:18;99134.75;;;-3.22;79.99
50682;BME280;36779;52.168;20.878;2022-12-11T11:40:56;99133.67;;;-3.21;79.97
50682;BME280;36779;52.168;20.878;2022-12-11T11:43:41;99126.94;;;-3.22;80.00
50682;BME280;36779;52.168;20.878;2022-12-11T11:46:22;99124.77;;;-3.21;79.83
50682;BME280;36779;52.168;20.878;2022-12-11T11:49:09;99123.45;;;-3.19;79.89
50682;BME280;36779;52.168;20.878;2022-12-11T11:51:43;99124.17;;;-3.17;80.02
50682;BME280;36779;52.168;20.878;2022-12-11T11:54:27;99121.70;;;-3.16;80.00
50682;BME280;36779;52.168;20.878;2022-12-11T11:57:10;99121.73;;;-3.17;79.99
50682;BME280;36779;52.168;20.878;2022-12-11T11:59:48;99116.79;;;-3.16;79.91
50682;BME280;36779;52.168;20.878;2022-12-11T12:02:22;99120.88;;;-3.15;79.86
50682;BME280;36779;52.168;20.878;2022-12-11T12:04:55;99120.52;;;-3.15;79.87
50682;BME280;36779;52.168;20.878;2022-12-11T12:07:36;99121.73;;;-3.14;79.78
50682;BME280;36779;52.168;20.878;2022-12-11T12:10:15;99118.55;;;-3.14;79.85
50682;BME280;36779;52.168;20.878;2022-12-11T12:12:56;99119.92;;;-3.13;80.07
50682;BME280;36779;52.168;20.878;2022-12-11T12:15:39;99122.23;;;-3.14;80.01
50682;BME280;36779;52.168;20.878;2022-12-11T12:18:20;99118.34;;;-3.13;79.98
50682;BME280;36779;52.168;20.878;2022-12-11T12:21:02;99117.95;;;-3.15;79.78
50682;BME280;36779;52.168;20.878;2022-12-11T12:23:53;99118.48;;;-3.20;79.61
50682;BME280;36779;52.168;20.878;2022-12-11T12:26:50;99119.55;;;-3.23;79.86
50682;BME280;36779;52.168;20.878;2022-12-11T12:29:34;99111.90;;;-3.25;79.68
50682;BME280;36779;52.168;20.878;2022-12-11T12:32:17;99108.70;;;-3.27;79.78
50682;BME280;36779;52.168;20.878;2022-12-11T12:35:07;99105.27;;;-3.27;79.90
50682;BME280;36779;52.168;20.878;2022-12-11T12:37:56;99104.74;;;-3.27;79.87
50682;BME280;36779;52.168;20.878;2022-12-11T12:40:38;99097.48;;;-3.31;79.81
50682;BME280;36779;52.168;20.878;2022-12-11T12:43:25;99091.90;;;-3.35;79.81
50682;BME280;36779;52.168;20.878;2022-12-11T12:46:23;99092.20;;;-3.42;79.69
50682;BME280;36779;52.168;20.878;2022-12-11T12:49:22;99087.46;;;-3.46;79.68
50682;BME280;36779;52.168;20.878;2022-12-11T12:51:58;99086.06;;;-3.46;79.83
50682;BME280;36779;52.168;20.878;2022-12-11T12:54:33;99084.34;;;-3.46;79.78
50682;BME280;36779;52.168;20.878;2022-12-11T12:57:09;99082.80;;;-3.47;79.81
50682;BME280;36779;52.168;20.878;2022-12-11T12:59:41;99083.25;;;-3.48;79.77
50682;BME280;36779;52.168;20.878;2022-12-11T13:02:15;99087.88;;;-3.50;79.72
50682;BME280;36779;52.168;20.878;2022-12-11T13:04:57;99083.42;;;-3.51;79.77
50682;BME280;36779;52.168;20.878;2022-12-11T13:07:34;99079.06;;;-3.53;79.76
50682;BME280;36779;52.168;20.878;2022-12-11T13:10:21;99077.41;;;-3.60;79.75
50682;BME280;36779;52.168;20.878;2022-12-11T13:12:58;99079.52;;;-3.68;79.77
50682;BME280;36779;52.168;20.878;2022-12-11T13:15:37;99080.91;;;-3.70;79.64
50682;BME280;36779;52.168;20.878;2022-12-11T13:18:33;99078.66;;;-3.70;79.64
50682;BME280;36779;52.168;20.878;2022-12-11T13:21:30;99081.31;;;-3.71;79.72
50682;BME280;36779;52.168;20.878;2022-12-11T13:24:25;99078.23;;;-3.69;79.79
50682;BME280;36779;52.168;20.878;2022-12-11T13:27:09;99077.08;;;-3.68;79.82
50682;BME280;36779;52.168;20.878;2022-12-11T13:29:42;99074.43;;;-3.70;79.69
50682;BME280;36779;52.168;20.878;2022-12-11T13:32:28;99073.55;;;-3.72;79.80
50682;BME280;36779;52.168;20.878;2022-12-11T13:35:13;99079.52;;;-3.72;79.83
50682;BME280;36779;52.168;20.878;2022-12-11T13:37:48;99079.42;;;-3.74;79.80
50682;BME280;36779;52.168;20.878;2022-12-11T13:40:24;99081.99;;;-3.76;79.80
50682;BME280;36779;52.168;20.878;2022-12-11T13:43:00;99080.59;;;-3.76;79.69